sensor_id;sensor_type;location;lat;lon;timestamp;P1;durP1;ratioP1;P2;durP2;ratioP2
18669;SDS011;9464;44.918;9.670;2023-04-15T00:00:55;1.53;;;0.80;;
18669;SDS011;9464;44.918;9.670;2023-04-15T00:03:25;2.50;;;1.00;;
18669;SDS011;9464;44.918;9.670;2023-04-15T00:05:55;4.73;;;1.13;;
18669;SDS011;9464;44.918;9.670;2023-04-15T00:08:23;3.50;;;0.83;;
18669;SDS011;9464;44.918;9.670;2023-04-15T00:10:52;1.57;;;0.70;;
18669;SDS011;9464;44.918;9.670;2023-04-15T00:13:20;1.90;;;0.90;;
18669;SDS011;9464;44.918;9.670;2023-04-15T00:15:49;1.70;;;0.70;;
18669;SDS011;9464;44.918;9.670;2023-04-15T00:18:17;2.37;;;0.87;;
18669;SDS011;9464;44.918;9.670;2023-04-15T00:20:47;2.07;;;0.80;;
18669;SDS011;9464;44.918;9.670;2023-04-15T00:23:15;1.53;;;0.70;;
18669;SDS011;9464;44.918;9.670;2023-04-15T00:25:44;4.67;;;1.07;;
18669;SDS011;9464;44.918;9.670;2023-04-15T00:28:12;3.60;;;1.10;;
18669;SDS011;9464;44.918;9.670;2023-04-15T00:30:41;1.53;;;1.00;;
18669;SDS011;9464;44.918;9.670;2023-04-15T00:33:09;4.80;;;1.10;;
18669;SDS011;9464;44.918;9.670;2023-04-15T00:35:38;1.93;;;0.93;;
18669;SDS011;9464;44.918;9.670;2023-04-15T00:38:08;3.07;;;0.93;;
18669;SDS011;9464;44.918;9.670;2023-04-15T00:40:36;2.83;;;0.77;;
18669;SDS011;9464;44.918;9.670;2023-04-15T00:43:05;3.43;;;1.23;;
18669;SDS011;9464;44.918;9.670;2023-04-15T00:45:33;4.37;;;0.93;;
18669;SDS011;9464;44.918;9.670;2023-04-15T00:48:02;6.30;;;1.23;;
18669;SDS011;9464;44.918;9.670;2023-04-15T00:50:32;2.73;;;1.00;;
18669;SDS011;9464;44.918;9.670;2023-04-15T00:53:00;1.50;;;1.00;;
18669;SDS011;9464;44.918;9.670;2023-04-15T00:55:30;4.60;;;0.97;;
18669;SDS011;9464;44.918;9.670;2023-04-15T00:57:59;2.50;;;1.10;;
18669;SDS011;9464;44.918;9.670;2023-04-15T01:00:27;3.03;;;1.17;;
18669;SDS011;9464;44.918;9.670;2023-04-15T01:02:56;1.93;;;1.13;;
18669;SDS011;9464;44.918;9.670;2023-04-15T01:05:25;4.47;;;0.90;;
18669;SDS011;9464;44.918;9.670;2023-04-15T01:07:53;2.30;;;1.50;;
18669;SDS011;9464;44.918;9.670;2023-04-15T01:10:22;4.03;;;2.10;;
18669;SDS011;9464;44.918;9.670;2023-04-15T01:12:52;6.13;;;1.60;;
18669;SDS011;9464;44.918;9.670;2023-04-15T01:15:20;5.40;;;1.67;;
18669;SDS011;9464;44.918;9.670;2023-04-15T01:17:49;7.30;;;2.50;;
18669;SDS011;9464;44.918;9.670;2023-04-15T01:20:17;8.37;;;2.63;;
18669;SDS011;9464;44.918;9.670;2023-04-15T01:22:45;4.03;;;1.90;;
18669;SDS011;9464;44.918;9.670;2023-04-15T01:25:16;4.47;;;1.73;;
18669;SDS011;9464;44.918;9.670;2023-04-15T01:27:46;5.60;;;1.77;;
18669;SDS011;9464;44.918;9.670;2023-04-15T01:30:15;4.93;;;1.60;;
18669;SDS011;9464;44.918;9.670;2023-04-15T01:32:43;3.70;;;1.47;;
18669;SDS011;9464;44.918;9.670;2023-04-15T01:35:12;2.83;;;1.47;;
18669;SDS011;9464;44.918;9.670;2023-04-15T01:37:40;2.80;;;1.53;;
18669;SDS011;9464;44.918;9.670;2023-04-15T01:40:09;1.93;;;1.20;;
18669;SDS011;9464;44.918;9.670;2023-04-15T01:42:37;2.93;;;1.70;;
18669;SDS011;9464;44.918;9.670;2023-04-15T01:45:08;2.60;;;0.93;;
18669;SDS011;9464;44.918;9.670;2023-04-15T01:47:36;3.10;;;1.43;;
18669;SDS011;9464;44.918;9.670;2023-04-15T01:50:05;3.03;;;1.30;;
18669;SDS011;9464;44.918;9.670;2023-04-15T01:52:34;3.10;;;1.60;;
18669;SDS011;9464;44.918;9.670;2023-04-15T01:55:03;3.20;;;1.20;;
18669;SDS011;9464;44.918;9.670;2023-04-15T01:57:31;1.27;;;1.00;;
18669;SDS011;9464;44.918;9.670;2023-04-15T02:00:00;1.73;;;1.10;;
18669;SDS011;9464;44.918;9.670;2023-04-15T02:02:30;2.53;;;1.17;;
18669;SDS011;9464;44.918;9.670;2023-04-15T02:04:58;5.33;;;1.20;;
18669;SDS011;9464;44.918;9.670;2023-04-15T02:07:27;2.77;;;1.00;;
18669;SDS011;9464;44.918;9.670;2023-04-15T02:09:57;2.93;;;1.20;;
18669;SDS011;9464;44.918;9.670;2023-04-15T02:12:25;1.30;;;0.97;;
18669;SDS011;9464;44.918;9.670;2023-04-15T02:14:54;3.47;;;1.30;;
18669;SDS011;9464;44.918;9.670;2023-04-15T02:17:22;5.20;;;1.20;;
18669;SDS011;9464;44.918;9.670;2023-04-15T02:19:53;3.70;;;1.00;;
18669;SDS011;9464;44.918;9.670;2023-04-15T02:22:22;3.63;;;1.00;;
18669;SDS011;9464;44.918;9.670;2023-04-15T02:24:51;1.37;;;0.87;;
18669;SDS011;9464;44.918;9.670;2023-04-15T02:27:19;2.53;;;1.10;;
18669;SDS011;9464;44.918;9.670;2023-04-15T02:29:48;3.73;;;1.37;;
18669;SDS011;9464;44.918;9.670;2023-04-15T02:32:16;3.70;;;1.17;;
18669;SDS011;9464;44.918;9.670;2023-04-15T02:34:45;1.70;;;0.97;;
18669;SDS011;9464;44.918;9.670;2023-04-15T02:37:15;3.60;;;1.10;;
18669;SDS011;9464;44.918;9.670;2023-04-15T02:39:45;2.57;;;1.00;;
18669;SDS011;9464;44.918;9.670;2023-04-15T02:42:14;2.50;;;0.73;;
18669;SDS011;9464;44.918;9.670;2023-04-15T02:44:42;2.03;;;1.40;;
18669;SDS011;9464;44.918;9.670;2023-04-15T02:47:10;2.37;;;1.20;;
18669;SDS011;9464;44.918;9.670;2023-04-15T02:49:40;3.13;;;1.27;;
18669;SDS011;9464;44.918;9.670;2023-04-15T02:52:08;1.70;;;1.10;;
18669;SDS011;9464;44.918;9.670;2023-04-15T02:54:38;1.37;;;1.10;;
18669;SDS011;9464;44.918;9.670;2023-04-15T02:57:06;2.20;;;1.03;;
18669;SDS011;9464;44.918;9.670;2023-04-15T02:59:37;2.67;;;1.10;;
18669;SDS011;9464;44.918;9.670;2023-04-15T03:02:05;3.80;;;1.30;;
18669;SDS011;9464;44.918;9.670;2023-04-15T03:04:34;4.43;;;1.20;;
18669;SDS011;9464;44.918;9.670;2023-04-15T03:07:02;4.20;;;1.50;;
18669;SDS011;9464;44.918;9.670;2023-04-15T03:09:31;3.10;;;1.30;;
18669;SDS011;9464;44.918;9.670;2023-04-15T03:12:01;4.83;;;1.20;;
18669;SDS011;9464;44.918;9.670;2023-04-15T03:14:30;5.33;;;1.87;;
18669;SDS011;9464;44.918;9.670;2023-04-15T03:16:58;7.97;;;2.50;;
18669;SDS011;9464;44.918;9.670;2023-04-15T03:19:27;8.40;;;3.20;;
18669;SDS011;9464;44.918;9.670;2023-04-15T03:21:55;7.53;;;2.40;;
18669;SDS011;9464;44.918;9.670;2023-04-15T03:24:24;6.43;;;1.80;;
18669;SDS011;9464;44.918;9.670;2023-04-15T03:26:54;7.10;;;1.53;;
18669;SDS011;9464;44.918;9.670;2023-04-15T03:29:24;6.03;;;1.63;;
18669;SDS011;9464;44.918;9.670;2023-04-15T03:31:53;6.67;;;1.80;;
18669;SDS011;9464;44.918;9.670;2023-04-15T03:34:21;3.23;;;1.67;;
18669;SDS011;9464;44.918;9.670;2023-04-15T03:36:50;5.23;;;1.50;;
18669;SDS011;9464;44.918;9.670;2023-04-15T03:39:18;3.57;;;1.50;;
18669;SDS011;9464;44.918;9.670;2023-04-15T03:41:47;5.10;;;1.37;;
18669;SDS011;9464;44.918;9.670;2023-04-15T03:44:15;7.23;;;1.40;;
18669;SDS011;9464;44.918;9.670;2023-04-15T03:46:45;3.47;;;1.50;;
18669;SDS011;9464;44.918;9.670;2023-04-15T03:49:14;3.07;;;1.30;;
18669;SDS011;9464;44.918;9.670;2023-04-15T03:51:42;4.53;;;1.60;;
18669;SDS011;9464;44.918;9.670;2023-04-15T03:54:10;3.47;;;1.63;;
18669;SDS011;9464;44.918;9.670;2023-04-15T03:56:40;5.13;;;1.30;;
18669;SDS011;9464;44.918;9.670;2023-04-15T03:59:09;4.20;;;1.13;;
18669;SDS011;9464;44.918;9.670;2023-04-15T04:01:37;3.97;;;1.40;;
18669;SDS011;9464;44.918;9.670;2023-04-15T04:04:07;3.67;;;1.17;;
18669;SDS011;9464;44.918;9.670;2023-04-15T04:06:36;6.03;;;1.30;;
18669;SDS011;9464;44.918;9.670;2023-04-15T04:09:04;3.63;;;1.60;;
18669;SDS011;9464;44.918;9.670;2023-04-15T04:11:32;1.83;;;1.00;;
18669;SDS011;9464;44.918;9.670;2023-04-15T04:14:02;3.00;;;1.40;;
18669;SDS011;9464;44.918;9.670;2023-04-15T04:16:31;3.00;;;1.10;;
18669;SDS011;9464;44.918;9.670;2023-04-15T04:18:59;2.70;;;1.10;;
18669;SDS011;9464;44.918;9.670;2023-04-15T04:21:30;3.17;;;1.47;;
18669;SDS011;9464;44.918;9.670;2023-04-15T04:23:59;5.43;;;2.13;;
18669;SDS011;9464;44.918;9.670;2023-04-15T04:26:27;5.27;;;1.43;;
18669;SDS011;9464;44.918;9.670;2023-04-15T04:28:56;5.40;;;1.53;;
18669;SDS011;9464;44.918;9.670;2023-04-15T04:31:25;4.17;;;1.30;;
18669;SDS011;9464;44.918;9.670;2023-04-15T04:33:53;2.07;;;1.27;;
18669;SDS011;9464;44.918;9.670;2023-04-15T04:36:22;3.40;;;1.37;;
18669;SDS011;9464;44.918;9.670;2023-04-15T04:38:51;6.17;;;1.40;;
18669;SDS011;9464;44.918;9.670;2023-04-15T04:41:20;3.70;;;1.50;;
18669;SDS011;9464;44.918;9.670;2023-04-15T04:43:48;3.10;;;1.13;;
18669;SDS011;9464;44.918;9.670;2023-04-15T04:46:16;2.97;;;1.37;;
18669;SDS011;9464;44.918;9.670;2023-04-15T04:48:45;6.27;;;1.20;;
18669;SDS011;9464;44.918;9.670;2023-04-15T04:51:14;6.13;;;1.70;;
18669;SDS011;9464;44.918;9.670;2023-04-15T04:53:42;4.33;;;1.50;;
18669;SDS011;9464;44.918;9.670;2023-04-15T04:56:12;4.50;;;1.90;;
18669;SDS011;9464;44.918;9.670;2023-04-15T04:58:40;3.03;;;1.10;;
18669;SDS011;9464;44.918;9.670;2023-04-15T05:01:09;3.83;;;1.30;;
18669;SDS011;9464;44.918;9.670;2023-04-15T05:03:38;2.90;;;1.40;;
18669;SDS011;9464;44.918;9.670;2023-04-15T05:06:07;3.20;;;1.57;;
18669;SDS011;9464;44.918;9.670;2023-04-15T05:08:35;6.60;;;1.40;;
18669;SDS011;9464;44.918;9.670;2023-04-15T05:11:05;5.47;;;1.40;;
18669;SDS011;9464;44.918;9.670;2023-04-15T05:13:35;4.73;;;1.53;;
18669;SDS011;9464;44.918;9.670;2023-04-15T05:16:04;4.23;;;2.07;;
18669;SDS011;9464;44.918;9.670;2023-04-15T05:18:33;3.20;;;1.50;;
18669;SDS011;9464;44.918;9.670;2023-04-15T05:21:01;5.33;;;1.40;;
18669;SDS011;9464;44.918;9.670;2023-04-15T05:23:30;8.27;;;1.27;;
18669;SDS011;9464;44.918;9.670;2023-04-15T05:25:58;3.93;;;1.33;;
18669;SDS011;9464;44.918;9.670;2023-04-15T05:28:27;3.10;;;1.30;;
18669;SDS011;9464;44.918;9.670;2023-04-15T05:30:56;4.73;;;1.20;;
18669;SDS011;9464;44.918;9.670;2023-04-15T05:33:25;4.80;;;1.40;;
18669;SDS011;9464;44.918;9.670;2023-04-15T05:35:53;5.80;;;1.20;;
18669;SDS011;9464;44.918;9.670;2023-04-15T05:38:22;4.33;;;1.30;;
18669;SDS011;9464;44.918;9.670;2023-04-15T05:40:50;3.60;;;1.17;;
18669;SDS011;9464;44.918;9.670;2023-04-15T05:43:19;4.43;;;1.10;;
18669;SDS011;9464;44.918;9.670;2023-04-15T05:45:47;35.17;;;20.80;;
18669;SDS011;9464;44.918;9.670;2023-04-15T05:48:17;4.77;;;2.33;;
18669;SDS011;9464;44.918;9.670;2023-04-15T05:50:46;2.83;;;1.37;;
18669;SDS011;9464;44.918;9.670;2023-04-15T05:53:14;5.47;;;1.47;;
18669;SDS011;9464;44.918;9.670;2023-04-15T05:55:43;2.50;;;1.43;;
18669;SDS011;9464;44.918;9.670;2023-04-15T05:58:11;5.87;;;1.60;;
18669;SDS011;9464;44.918;9.670;2023-04-15T06:00:39;5.17;;;1.43;;
18669;SDS011;9464;44.918;9.670;2023-04-15T06:03:09;3.20;;;1.30;;
18669;SDS011;9464;44.918;9.670;2023-04-15T06:05:40;4.27;;;1.20;;
18669;SDS011;9464;44.918;9.670;2023-04-15T06:08:09;2.47;;;1.50;;
18669;SDS011;9464;44.918;9.670;2023-04-15T06:10:38;2.43;;;1.40;;
18669;SDS011;9464;44.918;9.670;2023-04-15T06:13:06;3.97;;;1.47;;
18669;SDS011;9464;44.918;9.670;2023-04-15T06:15:35;3.87;;;1.30;;
18669;SDS011;9464;44.918;9.670;2023-04-15T06:18:03;3.40;;;1.50;;
18669;SDS011;9464;44.918;9.670;2023-04-15T06:20:32;3.90;;;1.37;;
18669;SDS011;9464;44.918;9.670;2023-04-15T06:23:02;2.73;;;1.10;;
18669;SDS011;9464;44.918;9.670;2023-04-15T06:25:30;4.57;;;1.60;;
18669;SDS011;9464;44.918;9.670;2023-04-15T06:27:58;4.17;;;1.77;;
18669;SDS011;9464;44.918;9.670;2023-04-15T06:30:27;2.90;;;1.20;;
18669;SDS011;9464;44.918;9.670;2023-04-15T06:32:55;3.23;;;1.83;;
18669;SDS011;9464;44.918;9.670;2023-04-15T06:35:24;2.70;;;1.43;;
18669;SDS011;9464;44.918;9.670;2023-04-15T06:37:52;3.27;;;1.50;;
18669;SDS011;9464;44.918;9.670;2023-04-15T06:40:23;7.70;;;1.87;;
18669;SDS011;9464;44.918;9.670;2023-04-15T06:42:52;3.57;;;1.70;;
18669;SDS011;9464;44.918;9.670;2023-04-15T06:45:20;9.47;;;2.47;;
18669;SDS011;9464;44.918;9.670;2023-04-15T06:47:48;3.77;;;1.50;;
18669;SDS011;9464;44.918;9.670;2023-04-15T06:50:17;3.47;;;1.30;;
18669;SDS011;9464;44.918;9.670;2023-04-15T06:52:46;2.47;;;1.60;;
18669;SDS011;9464;44.918;9.670;2023-04-15T06:55:14;5.17;;;1.80;;
18669;SDS011;9464;44.918;9.670;2023-04-15T06:57:44;4.77;;;2.10;;
18669;SDS011;9464;44.918;9.670;2023-04-15T07:00:13;4.40;;;1.90;;
18669;SDS011;9464;44.918;9.670;2023-04-15T07:02:41;5.53;;;2.33;;
18669;SDS011;9464;44.918;9.670;2023-04-15T07:05:10;6.63;;;2.20;;
18669;SDS011;9464;44.918;9.670;2023-04-15T07:07:38;3.23;;;2.50;;
18669;SDS011;9464;44.918;9.670;2023-04-15T07:10:07;3.43;;;2.57;;
18669;SDS011;9464;44.918;9.670;2023-04-15T07:12:37;5.20;;;2.80;;
18669;SDS011;9464;44.918;9.670;2023-04-15T07:15:07;4.67;;;3.00;;
18669;SDS011;9464;44.918;9.670;2023-04-15T07:17:36;3.73;;;3.13;;
18669;SDS011;9464;44.918;9.670;2023-04-15T07:20:04;5.50;;;3.47;;
18669;SDS011;9464;44.918;9.670;2023-04-15T07:22:34;5.77;;;3.77;;
18669;SDS011;9464;44.918;9.670;2023-04-15T07:25:03;5.20;;;3.87;;
18669;SDS011;9464;44.918;9.670;2023-04-15T07:27:31;4.83;;;3.70;;
18669;SDS011;9464;44.918;9.670;2023-04-15T07:30:00;7.10;;;3.50;;
18669;SDS011;9464;44.918;9.670;2023-04-15T07:32:30;5.53;;;3.70;;
18669;SDS011;9464;44.918;9.670;2023-04-15T07:34:58;4.80;;;3.60;;
18669;SDS011;9464;44.918;9.670;2023-04-15T07:37:28;6.63;;;3.60;;
18669;SDS011;9464;44.918;9.670;2023-04-15T07:39:57;4.77;;;4.03;;
18669;SDS011;9464;44.918;9.670;2023-04-15T07:42:26;8.97;;;3.67;;
18669;SDS011;9464;44.918;9.670;2023-04-15T07:44:55;4.87;;;3.80;;
18669;SDS011;9464;44.918;9.670;2023-04-15T07:47:24;5.80;;;3.73;;
18669;SDS011;9464;44.918;9.670;2023-04-15T07:49:54;5.27;;;3.67;;
18669;SDS011;9464;44.918;9.670;2023-04-15T07:52:22;7.13;;;3.90;;
18669;SDS011;9464;44.918;9.670;2023-04-15T07:54:51;6.87;;;4.43;;
18669;SDS011;9464;44.918;9.670;2023-04-15T07:57:19;7.57;;;4.57;;
18669;SDS011;9464;44.918;9.670;2023-04-15T07:59:47;8.23;;;5.10;;
18669;SDS011;9464;44.918;9.670;2023-04-15T08:02:16;6.90;;;4.67;;
18669;SDS011;9464;44.918;9.670;2023-04-15T08:04:45;5.40;;;4.23;;
18669;SDS011;9464;44.918;9.670;2023-04-15T08:07:15;5.90;;;4.67;;
18669;SDS011;9464;44.918;9.670;2023-04-15T08:09:43;6.70;;;5.00;;
18669;SDS011;9464;44.918;9.670;2023-04-15T08:12:12;8.13;;;4.50;;
18669;SDS011;9464;44.918;9.670;2023-04-15T08:14:41;6.17;;;4.33;;
18669;SDS011;9464;44.918;9.670;2023-04-15T08:17:09;6.63;;;4.80;;
18669;SDS011;9464;44.918;9.670;2023-04-15T08:19:38;5.50;;;4.17;;
18669;SDS011;9464;44.918;9.670;2023-04-15T08:22:07;9.20;;;4.43;;
18669;SDS011;9464;44.918;9.670;2023-04-15T08:24:45;7.70;;;5.10;;
18669;SDS011;9464;44.918;9.670;2023-04-15T08:27:13;5.70;;;4.17;;
18669;SDS011;9464;44.918;9.670;2023-04-15T08:29:42;6.07;;;4.20;;
18669;SDS011;9464;44.918;9.670;2023-04-15T08:32:11;6.17;;;4.33;;
18669;SDS011;9464;44.918;9.670;2023-04-15T08:34:39;6.07;;;4.20;;
18669;SDS011;9464;44.918;9.670;2023-04-15T08:37:07;5.23;;;4.10;;
18669;SDS011;9464;44.918;9.670;2023-04-15T08:39:38;10.30;;;4.37;;
18669;SDS011;9464;44.918;9.670;2023-04-15T08:42:10;5.37;;;4.17;;
18669;SDS011;9464;44.918;9.670;2023-04-15T08:44:39;5.97;;;3.83;;
18669;SDS011;9464;44.918;9.670;2023-04-15T08:47:08;5.80;;;3.80;;
18669;SDS011;9464;44.918;9.670;2023-04-15T08:49:38;6.53;;;3.93;;
18669;SDS011;9464;44.918;9.670;2023-04-15T08:52:07;6.10;;;3.87;;
18669;SDS011;9464;44.918;9.670;2023-04-15T08:54:36;6.67;;;3.57;;
18669;SDS011;9464;44.918;9.670;2023-04-15T08:57:04;5.33;;;4.27;;
18669;SDS011;9464;44.918;9.670;2023-04-15T08:59:34;4.73;;;3.67;;
18669;SDS011;9464;44.918;9.670;2023-04-15T09:02:03;4.87;;;3.67;;
18669;SDS011;9464;44.918;9.670;2023-04-15T09:04:32;6.13;;;4.00;;
18669;SDS011;9464;44.918;9.670;2023-04-15T09:07:00;5.43;;;3.73;;
18669;SDS011;9464;44.918;9.670;2023-04-15T09:09:30;4.83;;;3.83;;
18669;SDS011;9464;44.918;9.670;2023-04-15T09:12:00;7.77;;;4.00;;
18669;SDS011;9464;44.918;9.670;2023-04-15T09:14:28;6.60;;;4.10;;
18669;SDS011;9464;44.918;9.670;2023-04-15T09:16:59;9.83;;;4.60;;
18669;SDS011;9464;44.918;9.670;2023-04-15T09:19:28;4.90;;;3.80;;
18669;SDS011;9464;44.918;9.670;2023-04-15T09:21:59;5.20;;;4.07;;
18669;SDS011;9464;44.918;9.670;2023-04-15T09:24:32;4.53;;;3.63;;
18669;SDS011;9464;44.918;9.670;2023-04-15T09:27:03;5.50;;;3.97;;
18669;SDS011;9464;44.918;9.670;2023-04-15T09:29:32;5.80;;;3.80;;
18669;SDS011;9464;44.918;9.670;2023-04-15T09:32:10;4.70;;;3.60;;
18669;SDS011;9464;44.918;9.670;2023-04-15T09:34:39;4.30;;;3.90;;
18669;SDS011;9464;44.918;9.670;2023-04-15T09:37:07;3.83;;;3.50;;
18669;SDS011;9464;44.918;9.670;2023-04-15T09:39:56;5.63;;;4.47;;
18669;SDS011;9464;44.918;9.670;2023-04-15T09:42:25;5.90;;;4.67;;
18669;SDS011;9464;44.918;9.670;2023-04-15T09:44:54;5.83;;;4.30;;
18669;SDS011;9464;44.918;9.670;2023-04-15T09:47:27;4.70;;;3.63;;
18669;SDS011;9464;44.918;9.670;2023-04-15T09:49:57;6.20;;;3.77;;
18669;SDS011;9464;44.918;9.670;2023-04-15T09:52:25;11.87;;;4.10;;
18669;SDS011;9464;44.918;9.670;2023-04-15T09:54:55;7.13;;;4.33;;
18669;SDS011;9464;44.918;9.670;2023-04-15T09:57:24;4.23;;;3.77;;
18669;SDS011;9464;44.918;9.670;2023-04-15T09:59:53;5.30;;;3.37;;
18669;SDS011;9464;44.918;9.670;2023-04-15T10:02:21;9.27;;;4.17;;
18669;SDS011;9464;44.918;9.670;2023-04-15T10:04:51;4.80;;;4.07;;
18669;SDS011;9464;44.918;9.670;2023-04-15T10:07:20;6.30;;;3.70;;
18669;SDS011;9464;44.918;9.670;2023-04-15T10:09:48;7.47;;;4.20;;
18669;SDS011;9464;44.918;9.670;2023-04-15T10:12:17;5.60;;;4.00;;
18669;SDS011;9464;44.918;9.670;2023-04-15T10:14:47;5.03;;;3.60;;
18669;SDS011;9464;44.918;9.670;2023-04-15T10:17:16;6.97;;;3.97;;
18669;SDS011;9464;44.918;9.670;2023-04-15T10:19:45;5.50;;;3.60;;
18669;SDS011;9464;44.918;9.670;2023-04-15T10:22:15;4.83;;;3.67;;
18669;SDS011;9464;44.918;9.670;2023-04-15T10:24:44;7.70;;;3.60;;
18669;SDS011;9464;44.918;9.670;2023-04-15T10:27:16;4.73;;;3.10;;
18669;SDS011;9464;44.918;9.670;2023-04-15T10:29:45;5.90;;;3.27;;
18669;SDS011;9464;44.918;9.670;2023-04-15T10:32:14;6.93;;;3.73;;
18669;SDS011;9464;44.918;9.670;2023-04-15T10:34:43;3.63;;;3.17;;
18669;SDS011;9464;44.918;9.670;2023-04-15T10:37:18;5.53;;;3.23;;
18669;SDS011;9464;44.918;9.670;2023-04-15T10:39:51;5.73;;;3.53;;
18669;SDS011;9464;44.918;9.670;2023-04-15T10:42:19;5.73;;;3.50;;
18669;SDS011;9464;44.918;9.670;2023-04-15T10:44:48;4.90;;;3.30;;
18669;SDS011;9464;44.918;9.670;2023-04-15T10:47:17;5.03;;;3.43;;
18669;SDS011;9464;44.918;9.670;2023-04-15T10:49:47;6.83;;;3.70;;
18669;SDS011;9464;44.918;9.670;2023-04-15T10:52:17;4.83;;;3.70;;
18669;SDS011;9464;44.918;9.670;2023-04-15T10:54:45;5.40;;;3.83;;
18669;SDS011;9464;44.918;9.670;2023-04-15T10:57:16;5.57;;;3.60;;
18669;SDS011;9464;44.918;9.670;2023-04-15T11:00:01;4.93;;;3.80;;
18669;SDS011;9464;44.918;9.670;2023-04-15T11:02:38;7.00;;;4.73;;
18669;SDS011;9464;44.918;9.670;2023-04-15T11:05:07;5.00;;;4.20;;
18669;SDS011;9464;44.918;9.670;2023-04-15T11:07:37;5.27;;;3.97;;
18669;SDS011;9464;44.918;9.670;2023-04-15T11:12:52;6.43;;;4.50;;
18669;SDS011;9464;44.918;9.670;2023-04-15T11:15:24;6.67;;;4.40;;
18669;SDS011;9464;44.918;9.670;2023-04-15T11:17:54;6.33;;;4.43;;
18669;SDS011;9464;44.918;9.670;2023-04-15T11:20:23;8.10;;;4.57;;
18669;SDS011;9464;44.918;9.670;2023-04-15T11:22:52;7.50;;;4.67;;
18669;SDS011;9464;44.918;9.670;2023-04-15T11:25:40;6.27;;;4.37;;
18669;SDS011;9464;44.918;9.670;2023-04-15T11:28:10;7.53;;;4.13;;
18669;SDS011;9464;44.918;9.670;2023-04-15T11:30:39;7.20;;;4.33;;
18669;SDS011;9464;44.918;9.670;2023-04-15T11:33:10;6.80;;;4.03;;
18669;SDS011;9464;44.918;9.670;2023-04-15T11:35:39;6.23;;;3.97;;
18669;SDS011;9464;44.918;9.670;2023-04-15T11:38:09;7.23;;;4.53;;
18669;SDS011;9464;44.918;9.670;2023-04-15T11:40:38;6.47;;;4.47;;
18669;SDS011;9464;44.918;9.670;2023-04-15T11:43:12;6.77;;;4.47;;
18669;SDS011;9464;44.918;9.670;2023-04-15T11:45:48;5.87;;;4.00;;
18669;SDS011;9464;44.918;9.670;2023-04-15T11:48:17;9.37;;;4.20;;
18669;SDS011;9464;44.918;9.670;2023-04-15T11:50:51;7.90;;;4.77;;
18669;SDS011;9464;44.918;9.670;2023-04-15T11:53:19;7.37;;;4.47;;
18669;SDS011;9464;44.918;9.670;2023-04-15T11:55:48;6.80;;;4.50;;
18669;SDS011;9464;44.918;9.670;2023-04-15T11:58:19;8.20;;;4.13;;
18669;SDS011;9464;44.918;9.670;2023-04-15T12:00:49;6.67;;;3.90;;
18669;SDS011;9464;44.918;9.670;2023-04-15T12:03:18;6.03;;;4.47;;
18669;SDS011;9464;44.918;9.670;2023-04-15T12:08:51;13.57;;;7.80;;
18669;SDS011;9464;44.918;9.670;2023-04-15T12:11:20;5.93;;;4.30;;
18669;SDS011;9464;44.918;9.670;2023-04-15T12:13:52;8.63;;;4.50;;
18669;SDS011;9464;44.918;9.670;2023-04-15T12:16:20;10.23;;;5.33;;
18669;SDS011;9464;44.918;9.670;2023-04-15T12:18:49;7.30;;;4.30;;
18669;SDS011;9464;44.918;9.670;2023-04-15T12:21:18;7.40;;;4.50;;
18669;SDS011;9464;44.918;9.670;2023-04-15T12:23:47;8.13;;;5.13;;
18669;SDS011;9464;44.918;9.670;2023-04-15T12:26:16;9.13;;;5.03;;
18669;SDS011;9464;44.918;9.670;2023-04-15T12:28:44;8.10;;;5.33;;
18669;SDS011;9464;44.918;9.670;2023-04-15T12:31:14;8.80;;;4.93;;
18669;SDS011;9464;44.918;9.670;2023-04-15T12:33:46;10.17;;;5.37;;
18669;SDS011;9464;44.918;9.670;2023-04-15T12:36:15;9.10;;;4.67;;
18669;SDS011;9464;44.918;9.670;2023-04-15T12:38:43;6.13;;;4.50;;
18669;SDS011;9464;44.918;9.670;2023-04-15T12:41:12;6.80;;;4.37;;
18669;SDS011;9464;44.918;9.670;2023-04-15T12:43:40;7.70;;;4.30;;
18669;SDS011;9464;44.918;9.670;2023-04-15T12:46:08;6.27;;;4.83;;
18669;SDS011;9464;44.918;9.670;2023-04-15T12:48:38;5.93;;;4.03;;
18669;SDS011;9464;44.918;9.670;2023-04-15T12:51:07;6.97;;;4.00;;
18669;SDS011;9464;44.918;9.670;2023-04-15T12:53:35;7.67;;;4.20;;
18669;SDS011;9464;44.918;9.670;2023-04-15T12:56:04;6.80;;;4.40;;
18669;SDS011;9464;44.918;9.670;2023-04-15T12:58:33;5.93;;;4.33;;
18669;SDS011;9464;44.918;9.670;2023-04-15T13:01:01;8.87;;;5.70;;
18669;SDS011;9464;44.918;9.670;2023-04-15T13:03:30;7.50;;;4.90;;
18669;SDS011;9464;44.918;9.670;2023-04-15T13:06:00;7.23;;;4.63;;
18669;SDS011;9464;44.918;9.670;2023-04-15T13:08:30;6.53;;;3.80;;
18669;SDS011;9464;44.918;9.670;2023-04-15T13:10:58;6.80;;;4.10;;
18669;SDS011;9464;44.918;9.670;2023-04-15T13:13:27;8.27;;;4.33;;
18669;SDS011;9464;44.918;9.670;2023-04-15T13:15:57;7.43;;;4.10;;
18669;SDS011;9464;44.918;9.670;2023-04-15T13:18:26;7.13;;;4.17;;
18669;SDS011;9464;44.918;9.670;2023-04-15T13:20:56;5.67;;;3.67;;
18669;SDS011;9464;44.918;9.670;2023-04-15T13:23:26;7.70;;;3.67;;
18669;SDS011;9464;44.918;9.670;2023-04-15T13:25:54;5.33;;;3.37;;
18669;SDS011;9464;44.918;9.670;2023-04-15T13:28:23;6.37;;;3.50;;
18669;SDS011;9464;44.918;9.670;2023-04-15T13:30:51;6.43;;;4.00;;
18669;SDS011;9464;44.918;9.670;2023-04-15T13:33:19;5.53;;;3.73;;
18669;SDS011;9464;44.918;9.670;2023-04-15T13:35:48;6.40;;;4.03;;
18669;SDS011;9464;44.918;9.670;2023-04-15T13:38:16;7.53;;;4.20;;
18669;SDS011;9464;44.918;9.670;2023-04-15T13:40:46;5.73;;;4.57;;
18669;SDS011;9464;44.918;9.670;2023-04-15T13:43:15;8.70;;;4.53;;
18669;SDS011;9464;44.918;9.670;2023-04-15T13:45:43;6.20;;;3.80;;
18669;SDS011;9464;44.918;9.670;2023-04-15T13:48:12;7.63;;;4.17;;
18669;SDS011;9464;44.918;9.670;2023-04-15T13:50:40;7.90;;;4.33;;
18669;SDS011;9464;44.918;9.670;2023-04-15T13:53:10;7.73;;;4.97;;
18669;SDS011;9464;44.918;9.670;2023-04-15T13:55:39;5.23;;;4.07;;
18669;SDS011;9464;44.918;9.670;2023-04-15T13:58:09;5.33;;;3.77;;
18669;SDS011;9464;44.918;9.670;2023-04-15T14:00:38;6.90;;;4.63;;
18669;SDS011;9464;44.918;9.670;2023-04-15T14:03:06;10.13;;;4.43;;
18669;SDS011;9464;44.918;9.670;2023-04-15T14:05:35;8.13;;;4.83;;
18669;SDS011;9464;44.918;9.670;2023-04-15T14:08:04;6.67;;;4.47;;
18669;SDS011;9464;44.918;9.670;2023-04-15T14:10:33;8.43;;;4.27;;
18669;SDS011;9464;44.918;9.670;2023-04-15T14:13:02;5.20;;;3.83;;
18669;SDS011;9464;44.918;9.670;2023-04-15T14:15:32;5.30;;;3.80;;
18669;SDS011;9464;44.918;9.670;2023-04-15T14:18:00;4.67;;;3.53;;
18669;SDS011;9464;44.918;9.670;2023-04-15T14:20:29;6.00;;;3.57;;
18669;SDS011;9464;44.918;9.670;2023-04-15T14:22:58;7.00;;;4.20;;
18669;SDS011;9464;44.918;9.670;2023-04-15T14:25:26;6.70;;;4.17;;
18669;SDS011;9464;44.918;9.670;2023-04-15T14:27:59;9.47;;;3.80;;
18669;SDS011;9464;44.918;9.670;2023-04-15T14:30:28;4.43;;;3.67;;
18669;SDS011;9464;44.918;9.670;2023-04-15T14:32:58;5.57;;;3.93;;
18669;SDS011;9464;44.918;9.670;2023-04-15T14:35:27;5.50;;;4.07;;
18669;SDS011;9464;44.918;9.670;2023-04-15T14:37:55;6.07;;;3.93;;
18669;SDS011;9464;44.918;9.670;2023-04-15T14:40:23;6.23;;;4.23;;
18669;SDS011;9464;44.918;9.670;2023-04-15T14:42:52;6.63;;;3.50;;
18669;SDS011;9464;44.918;9.670;2023-04-15T14:45:20;7.80;;;4.40;;
18669;SDS011;9464;44.918;9.670;2023-04-15T14:47:49;7.10;;;4.37;;
18669;SDS011;9464;44.918;9.670;2023-04-15T14:50:20;8.90;;;4.83;;
18669;SDS011;9464;44.918;9.670;2023-04-15T14:52:48;7.60;;;4.73;;
18669;SDS011;9464;44.918;9.670;2023-04-15T14:55:16;7.57;;;4.70;;
18669;SDS011;9464;44.918;9.670;2023-04-15T14:57:45;4.63;;;3.93;;
18669;SDS011;9464;44.918;9.670;2023-04-15T15:00:14;5.47;;;3.77;;
18669;SDS011;9464;44.918;9.670;2023-04-15T15:02:43;4.70;;;3.50;;
18669;SDS011;9464;44.918;9.670;2023-04-15T15:05:12;6.07;;;4.23;;
18669;SDS011;9464;44.918;9.670;2023-04-15T15:07:43;5.00;;;3.43;;
18669;SDS011;9464;44.918;9.670;2023-04-15T15:10:12;4.73;;;3.63;;
18669;SDS011;9464;44.918;9.670;2023-04-15T15:12:40;4.53;;;3.83;;
18669;SDS011;9464;44.918;9.670;2023-04-15T15:15:09;5.80;;;3.77;;
18669;SDS011;9464;44.918;9.670;2023-04-15T15:17:54;4.90;;;3.93;;